createdAt,value
2022-08-05T00:01:53.742Z,0
2022-08-05T00:06:57.787Z,0
2022-08-05T00:12:01.939Z,0
2022-08-05T00:17:04.225Z,0
2022-08-05T00:22:08.381Z,0
2022-08-05T00:27:28.498Z,0
2022-08-05T00:32:16.710Z,0
2022-08-05T00:37:20.828Z,0
2022-08-05T00:42:31.584Z,0
2022-08-05T00:47:53.184Z,0
2022-08-05T00:52:33.333Z,0
2022-08-05T00:57:55.515Z,0
2022-08-05T01:02:41.641Z,0
2022-08-05T01:08:40.333Z,0
2022-08-05T01:13:05.054Z,0
2022-08-05T01:17:54.113Z,0
2022-08-05T01:22:58.258Z,0
2022-08-05T01:28:02.429Z,0
2022-08-05T01:33:08.321Z,0
2022-08-05T01:38:10.734Z,0
2022-08-05T01:43:22.049Z,0
2022-08-05T01:48:19.054Z,0
2022-08-05T01:53:56.929Z,0
2022-08-05T01:58:40.339Z,0
2022-08-05T02:03:32.118Z,0
2022-08-05T02:08:34.335Z,0
2022-08-05T02:13:36.513Z,0
2022-08-05T02:18:41.987Z,0
2022-08-05T02:23:42.538Z,0
2022-08-05T02:28:46.691Z,0
2022-08-05T02:33:57.794Z,0
2022-08-05T02:38:55.052Z,0
2022-08-05T02:44:02.263Z,0
2022-08-05T02:49:03.319Z,0
2022-08-05T02:54:07.480Z,0
2022-08-05T02:59:11.804Z,0
2022-08-05T03:04:15.875Z,0
2022-08-05T03:09:36.436Z,0
2022-08-05T03:14:24.154Z,0
2022-08-05T03:19:33.093Z,0
2022-08-05T03:24:32.468Z,0
2022-08-05T03:29:45.240Z,0
2022-08-05T03:34:40.753Z,0
2022-08-05T03:39:58.431Z,0
2022-08-05T03:44:49.120Z,0
2022-08-05T03:49:53.239Z,1
2022-08-05T03:54:59.070Z,4
2022-08-05T04:00:01.790Z,13
2022-08-05T04:05:05.707Z,21
2022-08-05T04:10:09.527Z,38
2022-08-05T04:15:15.733Z,43
2022-08-05T04:20:16.279Z,75
2022-08-05T04:25:18.625Z,127
2022-08-05T04:30:22.731Z,190
2022-08-05T04:35:26.881Z,348
2022-08-05T04:40:31.047Z,408
2022-08-05T04:45:48.953Z,640
2022-08-05T04:51:02.044Z,565
2022-08-05T04:56:11.968Z,697
2022-08-05T05:00:50.675Z,877
2022-08-05T05:06:38.901Z,643
2022-08-05T05:10:56.597Z,617
2022-08-05T05:16:02.314Z,621
2022-08-05T05:21:04.387Z,753
2022-08-05T05:26:08.514Z,775
2022-08-05T05:31:12.622Z,362
2022-08-05T05:36:16.850Z,1129
2022-08-05T05:41:20.946Z,1231
2022-08-05T05:46:25.144Z,1426
2022-08-05T05:51:29.285Z,1403
2022-08-05T05:56:34.520Z,1354
2022-08-05T06:01:38.966Z,1060
2022-08-05T06:06:42.133Z,1964
2022-08-05T06:11:44.078Z,1189
2022-08-05T06:16:48.210Z,658
2022-08-05T06:21:50.441Z,1326
2022-08-05T06:26:54.614Z,1297
2022-08-05T06:31:58.777Z,1397
2022-08-05T06:37:02.910Z,1315
2022-08-05T06:42:07.069Z,735
2022-08-05T06:47:29.939Z,1618
2022-08-05T06:52:37.917Z,1344
2022-08-05T06:57:57.464Z,1030
2022-08-05T07:02:23.757Z,715
2022-08-05T07:07:35.378Z,504
2022-08-05T07:12:32.066Z,490
2022-08-05T07:18:00.227Z,539
2022-08-05T07:22:41.941Z,552
2022-08-05T07:27:58.469Z,1106
2022-08-05T07:32:50.973Z,1697
2022-08-05T07:37:52.924Z,957
2022-08-05T07:42:56.976Z,940
2022-08-05T07:48:01.188Z,1310
2022-08-05T07:53:05.356Z,1480
2022-08-05T07:58:09.752Z,1748
2022-08-05T08:03:15.982Z,1796
2022-08-05T08:08:15.917Z,1823
2022-08-05T08:13:22.046Z,1701
2022-08-05T08:18:24.249Z,1891
2022-08-05T08:24:01.193Z,1815
2022-08-05T08:28:35.634Z,3159
2022-08-05T08:33:35.954Z,3305
2022-08-05T08:38:38.980Z,4311
2022-08-05T08:45:23.433Z,3449
2022-08-05T08:49:06.317Z,1854
2022-08-05T08:53:51.532Z,2259
2022-08-05T08:58:55.633Z,3590
2022-08-05T09:04:00.059Z,4455
2022-08-05T09:09:03.995Z,2892
2022-08-05T09:14:53.915Z,3459
2022-08-05T09:19:12.252Z,4059
2022-08-05T09:24:16.418Z,4137
2022-08-05T09:29:20.595Z,5106
2022-08-05T09:34:26.084Z,5429
2022-08-05T09:39:45.096Z,5720
2022-08-05T09:44:33.042Z,6202
2022-08-05T09:49:54.686Z,7080
2022-08-05T09:54:41.383Z,5493
2022-08-05T09:59:45.533Z,5088
2022-08-05T10:10:14.480Z,4089
2022-08-05T10:14:56.161Z,3077
2022-08-05T10:20:04.458Z,2425
2022-08-05T10:25:04.463Z,3215
2022-08-05T10:32:47.265Z,3575
2022-08-05T10:35:12.784Z,5093
2022-08-05T10:40:17.826Z,4890
2022-08-05T10:45:30.525Z,6476
2022-08-05T10:50:36.304Z,6870
2022-08-05T10:55:29.386Z,8872
2022-08-05T11:00:33.549Z,5094
2022-08-05T11:05:37.779Z,11378
2022-08-05T11:10:50.376Z,13309
2022-08-05T11:15:59.032Z,11723
2022-08-05T11:20:50.171Z,10775
2022-08-05T11:26:05.321Z,10701
2022-08-05T11:30:58.781Z,6859
2022-08-05T11:36:07.705Z,6596
2022-08-05T11:41:34.349Z,9253
2022-08-05T11:46:23.428Z,8715
2022-08-05T11:51:44.052Z,12745
2022-08-05T11:56:25.356Z,14062
2022-08-05T12:01:21.587Z,13507
2022-08-05T12:06:25.716Z,10896
2022-08-05T12:11:28.349Z,7934
2022-08-05T12:16:32.172Z,8610
2022-08-05T12:21:39.146Z,7324
2022-08-05T12:26:44.131Z,7065
2022-08-05T12:31:48.262Z,8544
2022-08-05T12:36:48.798Z,5070
2022-08-05T12:41:58.102Z,8370
2022-08-05T12:46:57.134Z,9781
2022-08-05T12:52:14.160Z,11539
2022-08-05T12:57:09.577Z,9816
2022-08-05T13:02:10.101Z,7773
2022-08-05T13:07:16.219Z,9543
2022-08-05T13:12:19.965Z,10428
2022-08-05T13:17:31.722Z,13786
2022-08-05T13:22:28.476Z,9039
2022-08-05T13:27:37.950Z,2588
2022-08-05T13:32:39.163Z,2638
2022-08-05T13:37:38.692Z,5793
2022-08-05T13:42:42.873Z,7726
2022-08-05T13:48:08.735Z,4974
2022-08-05T13:52:51.179Z,5054
2022-08-05T13:57:53.431Z,8405
2022-08-05T14:02:57.656Z,6469
2022-08-05T14:08:05.835Z,5810
2022-08-05T14:13:04.093Z,3300
2022-08-05T14:18:06.348Z,2067
2022-08-05T14:23:10.447Z,2189
2022-08-05T14:28:15.956Z,2605
2022-08-05T14:33:23.208Z,1868
2022-08-05T14:38:32.714Z,1590
2022-08-05T14:43:59.372Z,3025
2022-08-05T14:48:33.200Z,4266
2022-08-05T14:53:44.209Z,4170
2022-08-05T14:58:39.617Z,4649
2022-08-05T15:03:43.787Z,5410
2022-08-05T15:08:58.618Z,6126
2022-08-05T15:13:52.066Z,13307
2022-08-05T15:18:56.215Z,8484
2022-08-05T15:24:00.391Z,8380
2022-08-05T15:29:04.534Z,8463
2022-08-05T15:34:32.490Z,15076
2022-08-05T15:41:00.571Z,9616
2022-08-05T15:44:17.168Z,11243
2022-08-05T15:49:39.958Z,9457
2022-08-05T15:54:34.699Z,24753
2022-08-05T15:59:29.478Z,24160
2022-08-05T16:04:31.783Z,26079
2022-08-05T16:09:35.990Z,21656
2022-08-05T16:14:40.122Z,18278
2022-08-05T16:20:05.693Z,2828
2022-08-05T16:24:51.133Z,4165
2022-08-05T16:29:52.652Z,4067
2022-08-05T16:34:56.831Z,3611
2022-08-05T16:40:07.104Z,3581
2022-08-05T16:46:02.782Z,3541
2022-08-05T16:50:09.204Z,3741
2022-08-05T16:55:13.380Z,3471
2022-08-05T17:00:33.956Z,11537
2022-08-05T17:05:21.686Z,5666
2022-08-05T17:10:26.528Z,4253
2022-08-05T17:15:48.916Z,3840
2022-08-05T17:20:34.175Z,3965
2022-08-05T17:25:39.805Z,3191
2022-08-05T17:30:51.993Z,3030
2022-08-05T17:36:08.050Z,1970
2022-08-05T17:40:50.780Z,1808
2022-08-05T17:45:54.974Z,2637
2022-08-05T17:50:57.194Z,3351
2022-08-05T17:56:01.399Z,3246
2022-08-05T18:01:03.675Z,2100
2022-08-05T18:06:12.106Z,1521
2022-08-05T18:11:24.645Z,1460
2022-08-05T18:16:20.282Z,1334
2022-08-05T18:21:22.965Z,1191
2022-08-05T18:26:29.233Z,971
2022-08-05T18:31:33.830Z,877
2022-08-05T18:36:32.796Z,750
2022-08-05T18:41:56.032Z,725
2022-08-05T18:46:43.120Z,761
2022-08-05T18:52:05.293Z,616
2022-08-05T18:56:51.096Z,386
2022-08-05T19:01:57.234Z,310
2022-08-05T19:06:57.694Z,250
2022-08-05T19:12:01.877Z,170
2022-08-05T19:17:06.418Z,118
2022-08-05T19:22:10.179Z,76
2022-08-05T19:27:14.362Z,43
2022-08-05T19:32:20.520Z,23
2022-08-05T19:37:22.716Z,11
2022-08-05T19:42:35.362Z,5
2022-08-05T19:47:29.103Z,2
2022-08-05T19:52:33.551Z,0
2022-08-05T19:57:49.229Z,0
2022-08-05T20:02:41.569Z,0
2022-08-05T20:07:49.060Z,0
2022-08-05T20:12:49.895Z,0
2022-08-05T20:17:54.064Z,0
2022-08-05T20:22:58.449Z,0
2022-08-05T20:28:02.371Z,0
2022-08-05T20:33:06.555Z,0
2022-08-05T20:38:10.726Z,0
2022-08-05T20:43:14.845Z,0
2022-08-05T20:48:19.042Z,0
2022-08-05T20:53:36.441Z,0
2022-08-05T20:58:27.376Z,0
2022-08-05T21:03:34.571Z,0
2022-08-05T21:08:41.814Z,0
2022-08-05T21:13:47.766Z,0
2022-08-05T21:18:45.224Z,0
2022-08-05T21:23:48.113Z,0
2022-08-05T21:28:52.305Z,0
2022-08-05T21:33:54.569Z,0
2022-08-05T21:38:58.837Z,0
2022-08-05T21:44:04.437Z,0
2022-08-05T21:49:08.199Z,0
2022-08-05T21:54:11.207Z,0
2022-08-05T21:59:24.252Z,0
2022-08-05T22:04:19.523Z,0
2022-08-05T22:09:23.704Z,0
2022-08-05T22:14:35.881Z,0
2022-08-05T22:20:00.767Z,0
2022-08-05T22:24:40.841Z,0
2022-08-05T22:29:40.562Z,0
2022-08-05T22:34:44.508Z,0
2022-08-05T22:39:50.499Z,0
2022-08-05T22:44:56.673Z,0
2022-08-05T22:50:19.961Z,0
2022-08-05T22:55:01.126Z,0
2022-08-05T23:00:05.305Z,0
2022-08-05T23:05:09.447Z,0
2022-08-05T23:10:13.644Z,0
2022-08-05T23:15:18.084Z,0
2022-08-05T23:20:20.025Z,0
2022-08-05T23:25:53.249Z,0
2022-08-05T23:30:27.086Z,0
2022-08-05T23:35:34.176Z,0
2022-08-05T23:40:33.019Z,0
2022-08-05T23:45:37.067Z,0
2022-08-05T23:50:41.247Z,0
2022-08-05T23:55:43.957Z,0
